sensor_id;sensor_type;location;lat;lon;timestamp;P1;durP1;ratioP1;P2;durP2;ratioP2
5999;SDS011;3028;49.468;7.694;2023-07-13T00:01:24;2.97;;;0.90;;
5999;SDS011;3028;49.468;7.694;2023-07-13T00:03:26;3.50;;;0.88;;
5999;SDS011;3028;49.468;7.694;2023-07-13T00:05:29;1.65;;;0.90;;
5999;SDS011;3028;49.468;7.694;2023-07-13T00:07:32;1.60;;;1.02;;
5999;SDS011;3028;49.468;7.694;2023-07-13T00:09:33;1.60;;;0.95;;
5999;SDS011;3028;49.468;7.694;2023-07-13T00:11:35;3.25;;;1.00;;
5999;SDS011;3028;49.468;7.694;2023-07-13T00:13:37;1.52;;;1.40;;
5999;SDS011;3028;49.468;7.694;2023-07-13T00:15:40;1.02;;;0.77;;
5999;SDS011;3028;49.468;7.694;2023-07-13T00:17:42;2.90;;;1.08;;
5999;SDS011;3028;49.468;7.694;2023-07-13T00:19:48;3.08;;;1.45;;
5999;SDS011;3028;49.468;7.694;2023-07-13T00:21:50;3.35;;;0.82;;
5999;SDS011;3028;49.468;7.694;2023-07-13T00:23:52;3.53;;;0.98;;
5999;SDS011;3028;49.468;7.694;2023-07-13T00:25:53;4.80;;;1.17;;
5999;SDS011;3028;49.468;7.694;2023-07-13T00:27:58;2.55;;;1.00;;
5999;SDS011;3028;49.468;7.694;2023-07-13T00:29:59;2.15;;;1.23;;
5999;SDS011;3028;49.468;7.694;2023-07-13T00:32:02;3.80;;;1.27;;
5999;SDS011;3028;49.468;7.694;2023-07-13T00:34:07;3.60;;;1.50;;
5999;SDS011;3028;49.468;7.694;2023-07-13T00:36:09;2.42;;;1.30;;
5999;SDS011;3028;49.468;7.694;2023-07-13T00:38:12;1.95;;;1.67;;
5999;SDS011;3028;49.468;7.694;2023-07-13T00:40:14;2.63;;;1.50;;
5999;SDS011;3028;49.468;7.694;2023-07-13T00:42:16;2.60;;;1.10;;
5999;SDS011;3028;49.468;7.694;2023-07-13T00:44:19;4.88;;;1.00;;
5999;SDS011;3028;49.468;7.694;2023-07-13T00:46:28;2.15;;;1.17;;
5999;SDS011;3028;49.468;7.694;2023-07-13T00:48:34;2.83;;;1.17;;
5999;SDS011;3028;49.468;7.694;2023-07-13T00:50:37;1.55;;;1.10;;
5999;SDS011;3028;49.468;7.694;2023-07-13T00:52:41;3.60;;;1.20;;
5999;SDS011;3028;49.468;7.694;2023-07-13T00:54:46;1.65;;;0.82;;
5999;SDS011;3028;49.468;7.694;2023-07-13T00:56:49;2.80;;;1.17;;
5999;SDS011;3028;49.468;7.694;2023-07-13T00:58:52;4.20;;;2.45;;
5999;SDS011;3028;49.468;7.694;2023-07-13T01:00:54;1.02;;;0.90;;
5999;SDS011;3028;49.468;7.694;2023-07-13T01:02:56;2.78;;;1.20;;
5999;SDS011;3028;49.468;7.694;2023-07-13T01:04:59;1.95;;;0.98;;
5999;SDS011;3028;49.468;7.694;2023-07-13T01:07:03;3.28;;;1.10;;
5999;SDS011;3028;49.468;7.694;2023-07-13T01:09:06;1.33;;;1.20;;
5999;SDS011;3028;49.468;7.694;2023-07-13T01:11:09;1.70;;;1.10;;
5999;SDS011;3028;49.468;7.694;2023-07-13T01:13:11;4.03;;;1.27;;
5999;SDS011;3028;49.468;7.694;2023-07-13T01:17:35;1.42;;;1.10;;
5999;SDS011;3028;49.468;7.694;2023-07-13T01:21:40;1.65;;;1.00;;
5999;SDS011;3028;49.468;7.694;2023-07-13T01:23:44;3.80;;;1.60;;
5999;SDS011;3028;49.468;7.694;2023-07-13T01:25:46;1.95;;;1.00;;
5999;SDS011;3028;49.468;7.694;2023-07-13T01:27:48;2.72;;;1.48;;
5999;SDS011;3028;49.468;7.694;2023-07-13T01:29:49;6.55;;;1.25;;
5999;SDS011;3028;49.468;7.694;2023-07-13T01:31:53;1.35;;;1.00;;
5999;SDS011;3028;49.468;7.694;2023-07-13T01:33:55;3.72;;;1.75;;
5999;SDS011;3028;49.468;7.694;2023-07-13T01:35:58;2.17;;;1.00;;
5999;SDS011;3028;49.468;7.694;2023-07-13T01:38:00;1.30;;;1.20;;
5999;SDS011;3028;49.468;7.694;2023-07-13T01:40:03;1.35;;;1.00;;
5999;SDS011;3028;49.468;7.694;2023-07-13T01:42:12;1.65;;;1.40;;
5999;SDS011;3028;49.468;7.694;2023-07-13T01:44:14;4.85;;;1.42;;
5999;SDS011;3028;49.468;7.694;2023-07-13T01:46:15;5.70;;;1.30;;
5999;SDS011;3028;49.468;7.694;2023-07-13T01:48:24;1.70;;;1.10;;
5999;SDS011;3028;49.468;7.694;2023-07-13T01:50:26;4.03;;;1.20;;
5999;SDS011;3028;49.468;7.694;2023-07-13T01:52:28;1.27;;;1.05;;
5999;SDS011;3028;49.468;7.694;2023-07-13T01:54:30;4.65;;;1.02;;
5999;SDS011;3028;49.468;7.694;2023-07-13T01:56:32;3.53;;;0.88;;
5999;SDS011;3028;49.468;7.694;2023-07-13T01:58:33;3.17;;;1.13;;
5999;SDS011;3028;49.468;7.694;2023-07-13T02:00:35;2.92;;;1.05;;
5999;SDS011;3028;49.468;7.694;2023-07-13T02:02:37;1.83;;;1.20;;
5999;SDS011;3028;49.468;7.694;2023-07-13T02:04:39;1.50;;;0.95;;
5999;SDS011;3028;49.468;7.694;2023-07-13T02:06:40;1.52;;;1.20;;
5999;SDS011;3028;49.468;7.694;2023-07-13T02:08:42;2.40;;;1.20;;
5999;SDS011;3028;49.468;7.694;2023-07-13T02:10:44;1.20;;;1.10;;
5999;SDS011;3028;49.468;7.694;2023-07-13T02:12:45;5.00;;;0.90;;
5999;SDS011;3028;49.468;7.694;2023-07-13T02:14:49;2.22;;;1.38;;
5999;SDS011;3028;49.468;7.694;2023-07-13T02:16:51;1.17;;;1.08;;
5999;SDS011;3028;49.468;7.694;2023-07-13T02:18:53;3.15;;;1.20;;
5999;SDS011;3028;49.468;7.694;2023-07-13T02:20:56;4.15;;;1.30;;
5999;SDS011;3028;49.468;7.694;2023-07-13T02:22:58;8.05;;;1.40;;
5999;SDS011;3028;49.468;7.694;2023-07-13T02:25:00;1.20;;;1.08;;
5999;SDS011;3028;49.468;7.694;2023-07-13T02:27:02;3.40;;;1.40;;
5999;SDS011;3028;49.468;7.694;2023-07-13T02:29:04;1.60;;;1.15;;
5999;SDS011;3028;49.468;7.694;2023-07-13T02:31:13;1.67;;;1.10;;
5999;SDS011;3028;49.468;7.694;2023-07-13T02:33:15;2.05;;;1.27;;
5999;SDS011;3028;49.468;7.694;2023-07-13T02:35:17;3.60;;;1.30;;
5999;SDS011;3028;49.468;7.694;2023-07-13T02:37:19;6.07;;;1.08;;
5999;SDS011;3028;49.468;7.694;2023-07-13T02:39:22;3.30;;;2.55;;
5999;SDS011;3028;49.468;7.694;2023-07-13T02:41:24;2.28;;;1.63;;
5999;SDS011;3028;49.468;7.694;2023-07-13T02:43:26;2.85;;;1.23;;
5999;SDS011;3028;49.468;7.694;2023-07-13T02:45:28;1.33;;;1.17;;
5999;SDS011;3028;49.468;7.694;2023-07-13T02:47:31;5.13;;;1.20;;
5999;SDS011;3028;49.468;7.694;2023-07-13T02:49:33;1.85;;;1.13;;
5999;SDS011;3028;49.468;7.694;2023-07-13T02:51:35;1.67;;;1.38;;
5999;SDS011;3028;49.468;7.694;2023-07-13T02:53:37;5.97;;;1.20;;
5999;SDS011;3028;49.468;7.694;2023-07-13T02:55:39;2.22;;;1.10;;
5999;SDS011;3028;49.468;7.694;2023-07-13T02:57:42;1.88;;;1.10;;
5999;SDS011;3028;49.468;7.694;2023-07-13T02:59:43;3.03;;;1.42;;
5999;SDS011;3028;49.468;7.694;2023-07-13T03:01:45;2.08;;;1.42;;
5999;SDS011;3028;49.468;7.694;2023-07-13T03:03:47;2.28;;;1.48;;
5999;SDS011;3028;49.468;7.694;2023-07-13T03:05:57;2.78;;;1.55;;
5999;SDS011;3028;49.468;7.694;2023-07-13T03:08:00;2.35;;;1.25;;
5999;SDS011;3028;49.468;7.694;2023-07-13T03:10:02;1.30;;;0.90;;
5999;SDS011;3028;49.468;7.694;2023-07-13T03:12:05;1.30;;;1.20;;
5999;SDS011;3028;49.468;7.694;2023-07-13T03:14:07;2.40;;;1.42;;
5999;SDS011;3028;49.468;7.694;2023-07-13T03:16:09;1.77;;;1.33;;
5999;SDS011;3028;49.468;7.694;2023-07-13T03:18:12;1.75;;;1.23;;
5999;SDS011;3028;49.468;7.694;2023-07-13T03:20:14;1.23;;;1.00;;
5999;SDS011;3028;49.468;7.694;2023-07-13T03:22:16;1.83;;;1.17;;
5999;SDS011;3028;49.468;7.694;2023-07-13T03:24:18;1.48;;;1.10;;
5999;SDS011;3028;49.468;7.694;2023-07-13T03:26:21;2.22;;;1.30;;
5999;SDS011;3028;49.468;7.694;2023-07-13T03:28:22;2.08;;;1.05;;
5999;SDS011;3028;49.468;7.694;2023-07-13T03:30:24;3.88;;;1.05;;
5999;SDS011;3028;49.468;7.694;2023-07-13T03:32:26;2.78;;;1.40;;
5999;SDS011;3028;49.468;7.694;2023-07-13T03:34:27;1.45;;;1.15;;
5999;SDS011;3028;49.468;7.694;2023-07-13T03:36:30;2.75;;;1.20;;
5999;SDS011;3028;49.468;7.694;2023-07-13T03:38:32;2.38;;;1.40;;
5999;SDS011;3028;49.468;7.694;2023-07-13T03:40:34;2.10;;;1.08;;
5999;SDS011;3028;49.468;7.694;2023-07-13T03:42:36;1.15;;;1.05;;
5999;SDS011;3028;49.468;7.694;2023-07-13T03:44:38;1.80;;;1.40;;
5999;SDS011;3028;49.468;7.694;2023-07-13T03:46:41;2.00;;;1.40;;
5999;SDS011;3028;49.468;7.694;2023-07-13T03:48:44;2.03;;;1.13;;
5999;SDS011;3028;49.468;7.694;2023-07-13T03:50:47;2.42;;;1.38;;
5999;SDS011;3028;49.468;7.694;2023-07-13T03:52:50;3.72;;;1.70;;
5999;SDS011;3028;49.468;7.694;2023-07-13T03:54:52;2.85;;;1.42;;
5999;SDS011;3028;49.468;7.694;2023-07-13T03:56:54;2.17;;;1.35;;
5999;SDS011;3028;49.468;7.694;2023-07-13T03:58:56;1.40;;;1.30;;
5999;SDS011;3028;49.468;7.694;2023-07-13T04:00:58;2.33;;;1.40;;
5999;SDS011;3028;49.468;7.694;2023-07-13T04:03:01;1.73;;;1.13;;
5999;SDS011;3028;49.468;7.694;2023-07-13T04:05:02;1.95;;;1.27;;
5999;SDS011;3028;49.468;7.694;2023-07-13T04:07:04;1.27;;;1.15;;
5999;SDS011;3028;49.468;7.694;2023-07-13T04:09:06;2.55;;;1.42;;
5999;SDS011;3028;49.468;7.694;2023-07-13T04:11:08;2.47;;;1.50;;
5999;SDS011;3028;49.468;7.694;2023-07-13T04:13:10;2.92;;;1.92;;
5999;SDS011;3028;49.468;7.694;2023-07-13T04:15:11;2.03;;;1.17;;
5999;SDS011;3028;49.468;7.694;2023-07-13T04:17:14;2.33;;;1.58;;
5999;SDS011;3028;49.468;7.694;2023-07-13T04:19:15;3.55;;;1.30;;
5999;SDS011;3028;49.468;7.694;2023-07-13T04:21:18;1.50;;;1.40;;
5999;SDS011;3028;49.468;7.694;2023-07-13T04:23:19;1.40;;;1.10;;
5999;SDS011;3028;49.468;7.694;2023-07-13T04:25:21;2.35;;;1.65;;
5999;SDS011;3028;49.468;7.694;2023-07-13T04:27:23;2.25;;;1.60;;
5999;SDS011;3028;49.468;7.694;2023-07-13T04:29:26;1.73;;;1.60;;
5999;SDS011;3028;49.468;7.694;2023-07-13T04:31:28;4.28;;;1.85;;
5999;SDS011;3028;49.468;7.694;2023-07-13T04:33:30;3.85;;;1.70;;
5999;SDS011;3028;49.468;7.694;2023-07-13T04:35:32;1.77;;;1.67;;
5999;SDS011;3028;49.468;7.694;2023-07-13T04:37:33;2.38;;;1.55;;
5999;SDS011;3028;49.468;7.694;2023-07-13T04:39:36;3.40;;;1.42;;
5999;SDS011;3028;49.468;7.694;2023-07-13T04:41:38;3.47;;;1.67;;
5999;SDS011;3028;49.468;7.694;2023-07-13T04:43:40;2.08;;;1.88;;
5999;SDS011;3028;49.468;7.694;2023-07-13T04:45:42;3.13;;;1.35;;
5999;SDS011;3028;49.468;7.694;2023-07-13T04:47:44;4.38;;;1.70;;
5999;SDS011;3028;49.468;7.694;2023-07-13T04:49:46;2.50;;;1.80;;
5999;SDS011;3028;49.468;7.694;2023-07-13T04:51:48;4.05;;;1.83;;
5999;SDS011;3028;49.468;7.694;2023-07-13T04:53:50;2.45;;;1.70;;
5999;SDS011;3028;49.468;7.694;2023-07-13T04:55:59;1.60;;;1.50;;
5999;SDS011;3028;49.468;7.694;2023-07-13T04:58:05;2.28;;;1.38;;
5999;SDS011;3028;49.468;7.694;2023-07-13T05:00:07;2.55;;;1.85;;
5999;SDS011;3028;49.468;7.694;2023-07-13T05:02:10;2.25;;;1.63;;
5999;SDS011;3028;49.468;7.694;2023-07-13T05:04:12;4.40;;;1.92;;
5999;SDS011;3028;49.468;7.694;2023-07-13T05:06:14;2.38;;;1.67;;
5999;SDS011;3028;49.468;7.694;2023-07-13T05:08:15;2.72;;;1.58;;
5999;SDS011;3028;49.468;7.694;2023-07-13T05:10:17;2.75;;;1.42;;
5999;SDS011;3028;49.468;7.694;2023-07-13T05:12:19;4.38;;;2.38;;
5999;SDS011;3028;49.468;7.694;2023-07-13T05:14:21;1.50;;;1.40;;
5999;SDS011;3028;49.468;7.694;2023-07-13T05:16:23;2.38;;;1.85;;
5999;SDS011;3028;49.468;7.694;2023-07-13T05:18:24;4.05;;;2.08;;
5999;SDS011;3028;49.468;7.694;2023-07-13T05:20:29;2.38;;;1.60;;
5999;SDS011;3028;49.468;7.694;2023-07-13T05:22:31;2.55;;;2.17;;
5999;SDS011;3028;49.468;7.694;2023-07-13T05:24:33;4.82;;;2.35;;
5999;SDS011;3028;49.468;7.694;2023-07-13T05:26:35;2.85;;;1.83;;
5999;SDS011;3028;49.468;7.694;2023-07-13T05:28:36;3.97;;;1.90;;
5999;SDS011;3028;49.468;7.694;2023-07-13T05:30:39;2.20;;;1.85;;
5999;SDS011;3028;49.468;7.694;2023-07-13T05:32:41;3.67;;;1.73;;
5999;SDS011;3028;49.468;7.694;2023-07-13T05:34:43;4.05;;;1.95;;
5999;SDS011;3028;49.468;7.694;2023-07-13T05:36:44;2.10;;;1.70;;
5999;SDS011;3028;49.468;7.694;2023-07-13T05:38:46;2.00;;;1.23;;
5999;SDS011;3028;49.468;7.694;2023-07-13T05:40:49;7.53;;;2.08;;
5999;SDS011;3028;49.468;7.694;2023-07-13T05:42:51;1.85;;;1.75;;
5999;SDS011;3028;49.468;7.694;2023-07-13T05:44:53;4.65;;;1.58;;
5999;SDS011;3028;49.468;7.694;2023-07-13T05:46:55;5.13;;;1.55;;
5999;SDS011;3028;49.468;7.694;2023-07-13T05:48:58;2.67;;;1.48;;
5999;SDS011;3028;49.468;7.694;2023-07-13T05:51:00;7.40;;;1.92;;
5999;SDS011;3028;49.468;7.694;2023-07-13T05:53:02;2.90;;;1.77;;
5999;SDS011;3028;49.468;7.694;2023-07-13T05:55:04;1.95;;;1.50;;
5999;SDS011;3028;49.468;7.694;2023-07-13T05:57:06;5.93;;;1.88;;
5999;SDS011;3028;49.468;7.694;2023-07-13T05:59:08;6.38;;;2.53;;
5999;SDS011;3028;49.468;7.694;2023-07-13T06:01:11;3.63;;;2.00;;
5999;SDS011;3028;49.468;7.694;2023-07-13T06:03:14;4.00;;;1.90;;
5999;SDS011;3028;49.468;7.694;2023-07-13T06:05:16;6.63;;;1.98;;
5999;SDS011;3028;49.468;7.694;2023-07-13T06:07:18;2.53;;;1.50;;
5999;SDS011;3028;49.468;7.694;2023-07-13T06:09:20;2.55;;;1.88;;
5999;SDS011;3028;49.468;7.694;2023-07-13T06:11:23;4.93;;;2.30;;
5999;SDS011;3028;49.468;7.694;2023-07-13T06:13:27;4.18;;;1.77;;
5999;SDS011;3028;49.468;7.694;2023-07-13T06:15:29;2.13;;;1.63;;
5999;SDS011;3028;49.468;7.694;2023-07-13T06:17:31;5.15;;;2.03;;
5999;SDS011;3028;49.468;7.694;2023-07-13T06:19:33;2.28;;;1.50;;
5999;SDS011;3028;49.468;7.694;2023-07-13T06:21:35;3.33;;;2.03;;
5999;SDS011;3028;49.468;7.694;2023-07-13T06:23:37;5.25;;;2.30;;
5999;SDS011;3028;49.468;7.694;2023-07-13T06:25:39;2.42;;;1.65;;
5999;SDS011;3028;49.468;7.694;2023-07-13T06:27:41;7.03;;;2.25;;
5999;SDS011;3028;49.468;7.694;2023-07-13T06:29:43;3.65;;;2.22;;
5999;SDS011;3028;49.468;7.694;2023-07-13T06:31:46;3.33;;;1.50;;
5999;SDS011;3028;49.468;7.694;2023-07-13T06:33:48;5.20;;;1.63;;
5999;SDS011;3028;49.468;7.694;2023-07-13T06:35:50;11.02;;;1.85;;
5999;SDS011;3028;49.468;7.694;2023-07-13T06:37:51;2.05;;;1.52;;
5999;SDS011;3028;49.468;7.694;2023-07-13T06:39:53;3.15;;;1.83;;
5999;SDS011;3028;49.468;7.694;2023-07-13T06:41:55;1.42;;;1.02;;
5999;SDS011;3028;49.468;7.694;2023-07-13T06:43:57;5.65;;;1.38;;
5999;SDS011;3028;49.468;7.694;2023-07-13T06:45:59;2.10;;;1.17;;
5999;SDS011;3028;49.468;7.694;2023-07-13T06:48:02;2.08;;;1.20;;
5999;SDS011;3028;49.468;7.694;2023-07-13T06:50:04;3.22;;;1.25;;
5999;SDS011;3028;49.468;7.694;2023-07-13T06:52:08;5.57;;;1.40;;
5999;SDS011;3028;49.468;7.694;2023-07-13T06:54:35;2.83;;;1.45;;
5999;SDS011;3028;49.468;7.694;2023-07-13T06:56:38;1.10;;;0.70;;
5999;SDS011;3028;49.468;7.694;2023-07-13T06:59:07;2.95;;;1.33;;
5999;SDS011;3028;49.468;7.694;2023-07-13T07:01:09;2.97;;;1.02;;
5999;SDS011;3028;49.468;7.694;2023-07-13T07:03:11;2.90;;;1.17;;
5999;SDS011;3028;49.468;7.694;2023-07-13T07:05:18;8.65;;;1.40;;
5999;SDS011;3028;49.468;7.694;2023-07-13T07:07:23;3.95;;;1.30;;
5999;SDS011;3028;49.468;7.694;2023-07-13T07:09:26;2.55;;;1.23;;
5999;SDS011;3028;49.468;7.694;2023-07-13T07:11:28;3.25;;;1.20;;
5999;SDS011;3028;49.468;7.694;2023-07-13T07:13:30;1.23;;;0.70;;
5999;SDS011;3028;49.468;7.694;2023-07-13T07:15:32;2.22;;;1.10;;
5999;SDS011;3028;49.468;7.694;2023-07-13T07:17:36;9.25;;;1.15;;
5999;SDS011;3028;49.468;7.694;2023-07-13T07:19:38;2.45;;;1.02;;
5999;SDS011;3028;49.468;7.694;2023-07-13T07:21:40;2.03;;;1.10;;
5999;SDS011;3028;49.468;7.694;2023-07-13T07:23:42;2.65;;;1.10;;
5999;SDS011;3028;49.468;7.694;2023-07-13T07:25:44;2.63;;;1.10;;
5999;SDS011;3028;49.468;7.694;2023-07-13T07:27:48;2.65;;;1.25;;
5999;SDS011;3028;49.468;7.694;2023-07-13T07:29:53;2.88;;;1.13;;
5999;SDS011;3028;49.468;7.694;2023-07-13T07:32:18;6.60;;;0.82;;
5999;SDS011;3028;49.468;7.694;2023-07-13T07:34:24;5.38;;;1.00;;
5999;SDS011;3028;49.468;7.694;2023-07-13T07:36:25;5.70;;;1.27;;
5999;SDS011;3028;49.468;7.694;2023-07-13T07:38:35;2.70;;;0.88;;
5999;SDS011;3028;49.468;7.694;2023-07-13T07:40:40;3.72;;;1.23;;
5999;SDS011;3028;49.468;7.694;2023-07-13T07:42:45;5.07;;;0.73;;
5999;SDS011;3028;49.468;7.694;2023-07-13T07:44:47;4.13;;;1.25;;
5999;SDS011;3028;49.468;7.694;2023-07-13T07:46:49;2.17;;;1.00;;
5999;SDS011;3028;49.468;7.694;2023-07-13T07:48:50;6.20;;;0.80;;
5999;SDS011;3028;49.468;7.694;2023-07-13T07:50:52;7.25;;;0.90;;
5999;SDS011;3028;49.468;7.694;2023-07-13T07:52:54;2.63;;;0.95;;
5999;SDS011;3028;49.468;7.694;2023-07-13T07:54:59;1.10;;;0.80;;
5999;SDS011;3028;49.468;7.694;2023-07-13T07:57:03;1.73;;;0.80;;
5999;SDS011;3028;49.468;7.694;2023-07-13T07:59:08;2.72;;;1.10;;
5999;SDS011;3028;49.468;7.694;2023-07-13T08:01:13;3.10;;;1.15;;
5999;SDS011;3028;49.468;7.694;2023-07-13T08:03:18;3.38;;;1.20;;
5999;SDS011;3028;49.468;7.694;2023-07-13T08:05:23;3.22;;;1.33;;
5999;SDS011;3028;49.468;7.694;2023-07-13T08:07:44;5.50;;;0.90;;
5999;SDS011;3028;49.468;7.694;2023-07-13T08:09:46;3.42;;;1.20;;
5999;SDS011;3028;49.468;7.694;2023-07-13T08:11:48;2.40;;;0.98;;
5999;SDS011;3028;49.468;7.694;2023-07-13T08:13:53;2.38;;;1.10;;
5999;SDS011;3028;49.468;7.694;2023-07-13T08:15:56;2.00;;;0.93;;
5999;SDS011;3028;49.468;7.694;2023-07-13T08:18:00;2.08;;;0.70;;
5999;SDS011;3028;49.468;7.694;2023-07-13T08:20:02;1.63;;;0.80;;
5999;SDS011;3028;49.468;7.694;2023-07-13T08:22:05;4.07;;;1.00;;
5999;SDS011;3028;49.468;7.694;2023-07-13T08:24:07;6.28;;;0.82;;
5999;SDS011;3028;49.468;7.694;2023-07-13T08:26:09;8.85;;;0.95;;
5999;SDS011;3028;49.468;7.694;2023-07-13T08:28:11;2.80;;;0.80;;
5999;SDS011;3028;49.468;7.694;2023-07-13T08:30:13;2.28;;;0.75;;
5999;SDS011;3028;49.468;7.694;2023-07-13T08:32:15;1.60;;;0.77;;
5999;SDS011;3028;49.468;7.694;2023-07-13T08:34:17;1.83;;;0.90;;
5999;SDS011;3028;49.468;7.694;2023-07-13T08:36:19;1.92;;;1.00;;
5999;SDS011;3028;49.468;7.694;2023-07-13T08:38:20;2.80;;;1.00;;
5999;SDS011;3028;49.468;7.694;2023-07-13T08:40:24;3.17;;;0.80;;
5999;SDS011;3028;49.468;7.694;2023-07-13T08:42:30;4.93;;;1.55;;
5999;SDS011;3028;49.468;7.694;2023-07-13T08:44:42;2.58;;;1.13;;
5999;SDS011;3028;49.468;7.694;2023-07-13T08:46:50;3.63;;;0.77;;
5999;SDS011;3028;49.468;7.694;2023-07-13T08:48:58;1.45;;;0.90;;
5999;SDS011;3028;49.468;7.694;2023-07-13T08:53:35;1.90;;;1.08;;
5999;SDS011;3028;49.468;7.694;2023-07-13T08:55:39;5.07;;;1.08;;
5999;SDS011;3028;49.468;7.694;2023-07-13T08:57:41;2.38;;;1.08;;
5999;SDS011;3028;49.468;7.694;2023-07-13T08:59:44;4.45;;;2.17;;
5999;SDS011;3028;49.468;7.694;2023-07-13T09:01:51;2.05;;;0.88;;
5999;SDS011;3028;49.468;7.694;2023-07-13T09:06:14;6.65;;;0.90;;
5999;SDS011;3028;49.468;7.694;2023-07-13T09:10:46;3.00;;;0.93;;
5999;SDS011;3028;49.468;7.694;2023-07-13T09:13:04;3.20;;;0.82;;
5999;SDS011;3028;49.468;7.694;2023-07-13T09:15:39;3.10;;;0.88;;
5999;SDS011;3028;49.468;7.694;2023-07-13T09:17:46;2.85;;;0.60;;
5999;SDS011;3028;49.468;7.694;2023-07-13T09:19:55;2.15;;;0.93;;
5999;SDS011;3028;49.468;7.694;2023-07-13T09:22:05;1.83;;;0.80;;
5999;SDS011;3028;49.468;7.694;2023-07-13T09:24:28;5.15;;;0.85;;
5999;SDS011;3028;49.468;7.694;2023-07-13T09:26:37;1.10;;;0.80;;
5999;SDS011;3028;49.468;7.694;2023-07-13T09:28:43;3.72;;;1.00;;
5999;SDS011;3028;49.468;7.694;2023-07-13T09:30:50;2.13;;;0.77;;
5999;SDS011;3028;49.468;7.694;2023-07-13T09:32:58;2.50;;;0.73;;
5999;SDS011;3028;49.468;7.694;2023-07-13T09:35:00;0.90;;;0.60;;
5999;SDS011;3028;49.468;7.694;2023-07-13T09:37:03;1.48;;;0.90;;
5999;SDS011;3028;49.468;7.694;2023-07-13T09:41:29;0.93;;;0.70;;
5999;SDS011;3028;49.468;7.694;2023-07-13T09:46:20;2.67;;;0.70;;
5999;SDS011;3028;49.468;7.694;2023-07-13T09:48:23;1.42;;;0.82;;
5999;SDS011;3028;49.468;7.694;2023-07-13T09:50:25;1.40;;;0.60;;
5999;SDS011;3028;49.468;7.694;2023-07-13T09:52:43;2.50;;;0.70;;
5999;SDS011;3028;49.468;7.694;2023-07-13T09:54:50;1.25;;;0.60;;
5999;SDS011;3028;49.468;7.694;2023-07-13T09:56:58;2.08;;;0.77;;
5999;SDS011;3028;49.468;7.694;2023-07-13T09:59:01;1.98;;;0.88;;
5999;SDS011;3028;49.468;7.694;2023-07-13T10:01:03;4.32;;;1.13;;
5999;SDS011;3028;49.468;7.694;2023-07-13T10:03:17;2.95;;;0.98;;
5999;SDS011;3028;49.468;7.694;2023-07-13T10:05:26;2.20;;;0.98;;
5999;SDS011;3028;49.468;7.694;2023-07-13T10:07:28;1.50;;;0.68;;
5999;SDS011;3028;49.468;7.694;2023-07-13T10:09:34;0.82;;;0.60;;
5999;SDS011;3028;49.468;7.694;2023-07-13T10:11:36;2.50;;;0.75;;
5999;SDS011;3028;49.468;7.694;2023-07-13T10:13:42;6.25;;;0.88;;
5999;SDS011;3028;49.468;7.694;2023-07-13T10:15:51;2.05;;;0.63;;
5999;SDS011;3028;49.468;7.694;2023-07-13T10:17:56;1.75;;;0.60;;
5999;SDS011;3028;49.468;7.694;2023-07-13T10:20:01;0.82;;;0.70;;
5999;SDS011;3028;49.468;7.694;2023-07-13T10:24:27;1.98;;;0.98;;
5999;SDS011;3028;49.468;7.694;2023-07-13T10:26:34;1.10;;;0.68;;
5999;SDS011;3028;49.468;7.694;2023-07-13T10:28:49;1.63;;;0.90;;
5999;SDS011;3028;49.468;7.694;2023-07-13T10:30:54;1.67;;;0.65;;
5999;SDS011;3028;49.468;7.694;2023-07-13T10:33:10;2.40;;;0.80;;
5999;SDS011;3028;49.468;7.694;2023-07-13T10:35:15;1.90;;;0.80;;
5999;SDS011;3028;49.468;7.694;2023-07-13T10:37:20;2.58;;;0.80;;
5999;SDS011;3028;49.468;7.694;2023-07-13T10:39:34;2.55;;;0.88;;
5999;SDS011;3028;49.468;7.694;2023-07-13T10:41:38;1.55;;;0.70;;
5999;SDS011;3028;49.468;7.694;2023-07-13T10:43:45;3.00;;;1.10;;
5999;SDS011;3028;49.468;7.694;2023-07-13T10:45:51;2.80;;;1.13;;
5999;SDS011;3028;49.468;7.694;2023-07-13T10:47:53;1.92;;;0.90;;
5999;SDS011;3028;49.468;7.694;2023-07-13T10:49:57;1.20;;;0.60;;
5999;SDS011;3028;49.468;7.694;2023-07-13T10:51:59;2.75;;;1.15;;
5999;SDS011;3028;49.468;7.694;2023-07-13T10:54:44;2.40;;;0.80;;
5999;SDS011;3028;49.468;7.694;2023-07-13T10:56:30;1.48;;;0.90;;
5999;SDS011;3028;49.468;7.694;2023-07-13T10:58:43;1.30;;;0.70;;
5999;SDS011;3028;49.468;7.694;2023-07-13T11:01:09;2.35;;;0.98;;
5999;SDS011;3028;49.468;7.694;2023-07-13T11:03:10;3.65;;;0.82;;
5999;SDS011;3028;49.468;7.694;2023-07-13T11:05:36;2.17;;;0.90;;
5999;SDS011;3028;49.468;7.694;2023-07-13T11:07:51;2.80;;;0.98;;
5999;SDS011;3028;49.468;7.694;2023-07-13T11:09:57;1.58;;;0.73;;
5999;SDS011;3028;49.468;7.694;2023-07-13T11:12:01;2.05;;;0.80;;
5999;SDS011;3028;49.468;7.694;2023-07-13T11:14:26;1.90;;;0.80;;
5999;SDS011;3028;49.468;7.694;2023-07-13T11:19:26;1.42;;;1.00;;
5999;SDS011;3028;49.468;7.694;2023-07-13T11:21:33;4.22;;;1.00;;
5999;SDS011;3028;49.468;7.694;2023-07-13T11:23:35;1.10;;;0.70;;
5999;SDS011;3028;49.468;7.694;2023-07-13T11:25:44;3.08;;;1.10;;
5999;SDS011;3028;49.468;7.694;2023-07-13T11:28:06;2.17;;;0.75;;
5999;SDS011;3028;49.468;7.694;2023-07-13T11:32:31;1.73;;;0.93;;
5999;SDS011;3028;49.468;7.694;2023-07-13T11:34:34;4.93;;;0.95;;
5999;SDS011;3028;49.468;7.694;2023-07-13T11:36:38;4.45;;;0.98;;
5999;SDS011;3028;49.468;7.694;2023-07-13T11:41:02;1.48;;;0.75;;
5999;SDS011;3028;49.468;7.694;2023-07-13T11:43:11;2.17;;;0.80;;
5999;SDS011;3028;49.468;7.694;2023-07-13T11:45:18;7.15;;;1.33;;
5999;SDS011;3028;49.468;7.694;2023-07-13T11:47:39;5.43;;;0.90;;
5999;SDS011;3028;49.468;7.694;2023-07-13T11:49:49;1.83;;;0.90;;
5999;SDS011;3028;49.468;7.694;2023-07-13T11:51:53;1.85;;;0.70;;
5999;SDS011;3028;49.468;7.694;2023-07-13T11:54:01;3.22;;;0.95;;
5999;SDS011;3028;49.468;7.694;2023-07-13T11:56:12;4.10;;;1.05;;
5999;SDS011;3028;49.468;7.694;2023-07-13T11:58:16;2.92;;;0.82;;
5999;SDS011;3028;49.468;7.694;2023-07-13T12:00:22;1.48;;;0.63;;
5999;SDS011;3028;49.468;7.694;2023-07-13T12:02:34;1.35;;;0.75;;
5999;SDS011;3028;49.468;7.694;2023-07-13T12:04:41;3.30;;;0.90;;
5999;SDS011;3028;49.468;7.694;2023-07-13T12:06:44;2.60;;;1.70;;
5999;SDS011;3028;49.468;7.694;2023-07-13T12:08:52;2.65;;;0.88;;
5999;SDS011;3028;49.468;7.694;2023-07-13T12:10:58;2.25;;;0.70;;
5999;SDS011;3028;49.468;7.694;2023-07-13T12:13:08;2.83;;;0.90;;
5999;SDS011;3028;49.468;7.694;2023-07-13T12:15:21;3.55;;;0.63;;
5999;SDS011;3028;49.468;7.694;2023-07-13T12:17:24;6.13;;;1.02;;
5999;SDS011;3028;49.468;7.694;2023-07-13T12:19:27;5.18;;;0.60;;
5999;SDS011;3028;49.468;7.694;2023-07-13T12:21:31;0.70;;;0.70;;
5999;SDS011;3028;49.468;7.694;2023-07-13T12:23:34;2.13;;;0.88;;
5999;SDS011;3028;49.468;7.694;2023-07-13T12:25:37;3.47;;;0.98;;
5999;SDS011;3028;49.468;7.694;2023-07-13T12:27:38;1.90;;;0.60;;
5999;SDS011;3028;49.468;7.694;2023-07-13T12:29:48;1.42;;;0.85;;
5999;SDS011;3028;49.468;7.694;2023-07-13T12:31:51;4.05;;;0.90;;
5999;SDS011;3028;49.468;7.694;2023-07-13T12:36:23;1.98;;;0.93;;
5999;SDS011;3028;49.468;7.694;2023-07-13T12:38:24;1.42;;;0.55;;
5999;SDS011;3028;49.468;7.694;2023-07-13T12:40:33;1.88;;;0.88;;
5999;SDS011;3028;49.468;7.694;2023-07-13T12:42:37;1.33;;;0.63;;
5999;SDS011;3028;49.468;7.694;2023-07-13T12:44:41;2.65;;;1.00;;
5999;SDS011;3028;49.468;7.694;2023-07-13T12:46:53;1.35;;;0.60;;
5999;SDS011;3028;49.468;7.694;2023-07-13T12:48:57;1.65;;;0.70;;
5999;SDS011;3028;49.468;7.694;2023-07-13T12:51:20;2.58;;;0.80;;
5999;SDS011;3028;49.468;7.694;2023-07-13T12:53:29;2.38;;;1.00;;
5999;SDS011;3028;49.468;7.694;2023-07-13T12:55:40;1.45;;;0.60;;
5999;SDS011;3028;49.468;7.694;2023-07-13T12:57:54;1.35;;;0.55;;
5999;SDS011;3028;49.468;7.694;2023-07-13T13:00:00;2.67;;;0.80;;
5999;SDS011;3028;49.468;7.694;2023-07-13T13:02:16;1.40;;;0.73;;
5999;SDS011;3028;49.468;7.694;2023-07-13T13:04:32;0.77;;;0.52;;
5999;SDS011;3028;49.468;7.694;2023-07-13T13:06:35;3.33;;;0.98;;
5999;SDS011;3028;49.468;7.694;2023-07-13T13:08:37;3.30;;;1.10;;
5999;SDS011;3028;49.468;7.694;2023-07-13T13:10:42;2.85;;;0.80;;
5999;SDS011;3028;49.468;7.694;2023-07-13T13:12:44;6.47;;;0.95;;
5999;SDS011;3028;49.468;7.694;2023-07-13T13:14:46;0.80;;;0.55;;
5999;SDS011;3028;49.468;7.694;2023-07-13T13:16:48;5.70;;;1.30;;
5999;SDS011;3028;49.468;7.694;2023-07-13T13:18:53;3.33;;;0.80;;
5999;SDS011;3028;49.468;7.694;2023-07-13T13:20:55;2.45;;;1.00;;
5999;SDS011;3028;49.468;7.694;2023-07-13T13:22:57;2.83;;;0.85;;